Time;durP1;ratioP1;P1;durP2;ratioP2;P2;SDS_P1;SDS_P2;PMS_P1;PMS_P2;Temp;Humidity;BMP_temperature;BMP_pressure;BME280_temperature;BME280_humidity;BME280_pressure;Samples;Min_cycle;Max_cycle;Signal;HPM_P1;HPM_P2
2021/01/21 00:01:34;;;;;;;7.43;6.72;;;5.50;99.20;;;;;;6155480;23;20177;-82
2021/01/21 00:04:00;;;;;;;8.68;7.88;;;5.50;99.20;;;;;;6155814;23;20194;-82
2021/01/21 00:06:26;;;;;;;7.38;6.63;;;5.50;99.30;;;;;;6155872;23;20533;-82
2021/01/21 00:08:52;;;;;;;8.65;7.82;;;5.40;99.40;;;;;;6155667;23;20186;-83
2021/01/21 00:11:20;;;;;;;7.68;6.93;;;5.40;99.50;;;;;;6155884;23;20204;-79
2021/01/21 00:13:46;;;;;;;8.75;6.93;;;5.40;99.60;;;;;;6155657;23;20179;-82
2021/01/21 00:16:12;;;;;;;7.03;6.32;;;5.40;99.70;;;;;;6155432;23;20186;-82
2021/01/21 00:18:38;;;;;;;9.35;6.90;;;5.40;99.80;;;;;;6155943;23;20501;-82
2021/01/21 00:21:05;;;;;;;10.07;8.25;;;5.40;99.80;;;;;;6155589;23;20177;-82
2021/01/21 00:23:31;;;;;;;6.93;6.22;;;5.30;99.90;;;;;;6155565;23;20219;-83
2021/01/21 00:25:57;;;;;;;6.97;6.15;;;5.40;99.80;;;;;;6155390;23;20190;-83
2021/01/21 00:28:24;;;;;;;5.13;4.75;;;5.30;99.80;;;;;;6155893;23;20535;-83
2021/01/21 00:30:50;;;;;;;6.32;4.93;;;5.40;99.50;;;;;;6155776;23;20198;-82
2021/01/21 00:33:17;;;;;;;4.43;3.80;;;5.40;99.20;;;;;;6156031;23;20193;-82
2021/01/21 00:35:43;;;;;;;4.50;3.42;;;5.40;98.00;;;;;;6155947;23;20186;-82
2021/01/21 00:38:10;;;;;;;3.17;2.85;;;5.40;97.90;;;;;;6155449;23;20206;-83
2021/01/21 00:40:36;;;;;;;3.42;2.63;;;5.50;97.60;;;;;;6160643;23;20189;-82
2021/01/21 00:43:02;;;;;;;3.10;2.80;;;5.60;97.20;;;;;;6154881;23;20235;-82
2021/01/21 00:45:29;;;;;;;5.45;3.13;;;5.70;96.70;;;;;;6155079;23;20184;-82
2021/01/21 00:47:55;;;;;;;2.28;2.05;;;5.80;96.60;;;;;;6154737;23;20213;-82
2021/01/21 00:50:22;;;;;;;2.75;2.45;;;5.90;96.20;;;;;;6155289;23;20520;-81
2021/01/21 00:52:48;;;;;;;5.50;2.85;;;6.00;95.80;;;;;;6154879;23;20202;-82
2021/01/21 00:55:14;;;;;;;2.00;1.90;;;6.00;95.60;;;;;;6155143;23;20180;-83
2021/01/21 00:57:40;;;;;;;3.08;2.58;;;6.10;95.30;;;;;;6155255;23;20224;-83
2021/01/21 01:00:08;;;;;;;3.78;2.17;;;6.20;95.20;;;;;;6155169;23;20693;-82
2021/01/21 01:02:35;;;;;;;2.67;2.45;;;6.30;94.70;;;;;;6154725;23;20177;-82
2021/01/21 01:05:02;;;;;;;2.50;2.30;;;6.40;94.40;;;;;;6154945;23;20184;-81
2021/01/21 01:07:28;;;;;;;4.55;2.25;;;6.50;94.10;;;;;;6154880;23;20613;-81
2021/01/21 01:09:54;;;;;;;2.95;2.22;;;6.60;93.90;;;;;;6154889;23;20198;-81
2021/01/21 01:12:20;;;;;;;2.70;2.20;;;6.70;93.90;;;;;;6154535;23;20205;-82
2021/01/21 01:14:47;;;;;;;2.45;2.10;;;6.70;93.60;;;;;;6154799;23;20542;-82
2021/01/21 01:17:13;;;;;;;2.63;2.42;;;6.80;93.40;;;;;;6154481;23;20693;-82
2021/01/21 01:19:40;;;;;;;2.63;2.42;;;6.90;93.10;;;;;;6155023;23;20179;-82
2021/01/21 01:22:06;;;;;;;1.83;1.73;;;6.90;93.00;;;;;;6154796;23;20186;-82
2021/01/21 01:24:32;;;;;;;1.83;1.73;;;7.00;92.60;;;;;;6155586;23;20179;-82
2021/01/21 01:26:58;;;;;;;3.28;2.25;;;7.20;92.40;;;;;;6160665;23;20254;-81
2021/01/21 01:29:25;;;;;;;2.28;2.08;;;7.10;92.30;;;;;;6154856;23;20181;-82
2021/01/21 01:31:51;;;;;;;1.52;1.42;;;7.20;92.00;;;;;;6154619;23;20203;-83
2021/01/21 01:34:17;;;;;;;2.90;1.65;;;7.20;91.90;;;;;;6154823;23;20190;-82
2021/01/21 01:36:44;;;;;;;2.53;1.70;;;7.20;91.70;;;;;;6154416;23;20687;-83
2021/01/21 01:39:10;;;;;;;1.88;1.70;;;7.30;91.60;;;;;;6154755;23;20187;-82
2021/01/21 01:41:36;;;;;;;1.58;1.38;;;7.30;91.30;;;;;;6154496;23;20836;-82
2021/01/21 01:44:03;;;;;;;1.50;1.38;;;7.40;91.00;;;;;;6154944;23;20179;-81
2021/01/21 01:46:31;;;;;;;1.75;1.65;;;7.50;90.90;;;;;;6154661;23;20219;-82
2021/01/21 01:48:58;;;;;;;1.30;1.20;;;7.50;90.70;;;;;;6154901;23;20186;-83
2021/01/21 01:51:24;;;;;;;1.80;1.05;;;7.60;90.40;;;;;;6154333;23;20195;-83
2021/01/21 01:53:52;;;;;;;1.30;1.20;;;7.70;90.50;;;;;;6154799;23;20234;-82
2021/01/21 01:56:18;;;;;;;1.52;1.42;;;7.80;90.30;;;;;;6154739;23;20202;-82
2021/01/21 01:58:45;;;;;;;2.40;1.50;;;7.80;90.40;;;;;;6154718;23;20182;-82
2021/01/21 02:01:11;;;;;;;1.00;1.00;;;7.80;90.30;;;;;;6154633;23;20176;-81
2021/01/21 02:03:38;;;;;;;1.60;1.13;;;7.90;90.30;;;;;;6154497;23;20183;-82
2021/01/21 02:06:05;;;;;;;1.42;1.33;;;7.80;90.00;;;;;;6154263;23;20234;-82
2021/01/21 02:08:32;;;;;;;1.80;1.52;;;7.90;90.20;;;;;;6154770;23;20180;-82
2021/01/21 02:11:08;;;;;;;2.05;1.35;;;7.90;90.40;;;;;;6154682;23;20202;-82
2021/01/21 02:13:46;;;;;;;2.00;1.73;;;7.80;90.30;;;;;;6160076;23;20164;-82
2021/01/21 02:16:31;;;;;;;1.27;1.25;;;7.90;90.40;;;;;;6154422;23;20175;-82
2021/01/21 02:19:22;;;;;;;1.50;1.30;;;7.90;90.20;;;;;;6154390;23;20168;-82
2021/01/21 02:22:31;;;;;;;1.05;1.00;;;8.00;90.30;;;;;;6154009;23;20195;-82
2021/01/21 02:25:15;;;;;;;2.00;1.52;;;8.00;90.20;;;;;;6154868;23;20171;-83
2021/01/21 02:28:14;;;;;;;1.25;1.05;;;7.90;90.10;;;;;;6154572;23;20200;-82
2021/01/21 02:30:50;;;;;;;1.08;1.02;;;7.90;90.10;;;;;;6154771;23;20184;-82
2021/01/21 02:33:20;;;;;;;1.52;1.40;;;7.90;90.00;;;;;;6154308;23;20164;-82
2021/01/21 02:35:51;;;;;;;2.53;1.23;;;8.00;89.80;;;;;;6154944;23;20183;-82
2021/01/21 02:38:19;;;;;;;1.23;1.10;;;8.00;89.50;;;;;;6154779;23;20262;-83
2021/01/21 02:40:48;;;;;;;1.05;1.05;;;8.00;89.00;;;;;;6156483;23;20187;-82
2021/01/21 02:43:14;;;;;;;0.70;0.70;;;8.10;88.10;;;;;;6156123;23;20552;-82
2021/01/21 02:45:41;;;;;;;1.20;1.10;;;8.20;89.30;;;;;;6156355;23;20179;-82
2021/01/21 02:48:08;;;;;;;1.35;1.25;;;8.30;89.20;;;;;;6155866;23;20230;-83
2021/01/21 02:50:34;;;;;;;1.50;1.40;;;8.40;88.30;;;;;;6156056;23;20184;-82
2021/01/21 02:53:02;;;;;;;1.52;1.42;;;8.50;88.30;;;;;;6155525;23;20737;-82
2021/01/21 02:55:34;;;;;;;1.40;1.30;;;8.50;88.40;;;;;;6155806;23;20234;-81
2021/01/21 02:58:06;;;;;;;2.53;1.25;;;8.60;87.60;;;;;;6159123;23;20207;-82
2021/01/21 03:00:33;;;;;;;2.55;1.95;;;8.60;85.70;;;;;;6159266;23;20164;-81
2021/01/21 03:03:02;;;;;;;1.45;1.27;;;8.70;86.90;;;;;;6160432;23;20163;-80
2021/01/21 03:05:29;;;;;;;1.67;1.27;;;8.70;87.10;;;;;;6181450;23;20178;-81
2021/01/21 03:07:56;;;;;;;1.58;1.52;;;8.70;84.80;;;;;;6182205;23;20230;-81
2021/01/21 03:10:23;;;;;;;1.05;1.05;;;8.80;84.50;;;;;;6182562;23;20172;-80
2021/01/21 03:12:54;;;;;;;1.40;1.30;;;8.80;84.20;;;;;;6166258;23;20218;-82
2021/01/21 03:15:21;;;;;;;0.90;0.90;;;8.80;84.10;;;;;;6157460;23;20206;-83
2021/01/21 03:17:47;;;;;;;1.52;1.33;;;8.80;83.60;;;;;;6156659;23;20203;-82
2021/01/21 03:20:14;;;;;;;2.70;1.92;;;8.80;83.80;;;;;;6156716;23;20214;-82
2021/01/21 03:22:41;;;;;;;1.15;1.05;;;8.70;83.20;;;;;;6155966;23;20175;-81
2021/01/21 03:25:08;;;;;;;1.65;1.50;;;8.70;83.00;;;;;;6156092;23;20234;-81
2021/01/21 03:27:35;;;;;;;1.52;1.42;;;8.70;83.10;;;;;;6154673;23;20206;-82
2021/01/21 03:30:01;;;;;;;3.10;1.38;;;8.70;83.50;;;;;;6155373;23;20179;-82
2021/01/21 03:32:27;;;;;;;1.40;1.20;;;8.70;82.70;;;;;;6155768;23;20203;-83
2021/01/21 03:34:54;;;;;;;2.05;1.13;;;8.80;82.90;;;;;;6155889;23;20183;-83
2021/01/21 03:37:20;;;;;;;1.15;1.05;;;8.80;82.50;;;;;;6155948;23;20207;-82
2021/01/21 03:39:46;;;;;;;1.13;1.05;;;8.80;82.30;;;;;;6155690;23;20651;-83
2021/01/21 03:42:12;;;;;;;0.93;0.77;;;8.90;82.10;;;;;;6156108;23;20176;-82
2021/01/21 03:44:39;;;;;;;0.80;0.80;;;8.80;82.10;;;;;;6161318;23;20183;-82
2021/01/21 03:47:05;;;;;;;1.55;1.45;;;8.90;82.10;;;;;;6166718;23;20213;-84
2021/01/21 03:49:33;;;;;;;1.67;1.20;;;8.90;82.30;;;;;;6197044;23;20561;-85
2021/01/21 03:51:59;;;;;;;1.17;1.00;;;8.90;82.50;;;;;;6196768;23;20285;-82
2021/01/21 03:54:25;;;;;;;1.90;1.77;;;8.80;82.40;;;;;;6196797;23;20179;-84
2021/01/21 03:56:52;;;;;;;2.30;1.20;;;8.80;82.80;;;;;;6196844;23;20677;-82
2021/01/21 03:59:18;;;;;;;1.05;0.85;;;8.80;82.90;;;;;;6197334;23;20178;-82
2021/01/21 04:01:45;;;;;;;1.63;1.55;;;8.70;82.30;;;;;;6196574;23;20179;-83
2021/01/21 04:04:11;;;;;;;1.40;1.17;;;8.70;82.60;;;;;;6196805;23;20186;-85
2021/01/21 04:06:37;;;;;;;1.00;1.00;;;8.70;83.10;;;;;;6196652;23;20193;-84
2021/01/21 04:09:04;;;;;;;1.20;1.20;;;8.70;83.30;;;;;;6196835;23;20182;-84
2021/01/21 04:11:30;;;;;;;0.98;0.93;;;8.60;83.20;;;;;;6195730;23;20194;-84
2021/01/21 04:13:56;;;;;;;1.10;1.05;;;8.60;83.90;;;;;;6196720;23;20182;-85
2021/01/21 04:16:22;;;;;;;1.40;1.30;;;8.50;83.90;;;;;;6196585;23;20218;-85
2021/01/21 04:18:50;;;;;;;2.45;1.50;;;8.50;84.10;;;;;;6196118;23;20210;-85
2021/01/21 04:21:16;;;;;;;1.73;0.90;;;8.50;84.10;;;;;;6196170;23;20186;-85
2021/01/21 04:23:42;;;;;;;2.20;1.20;;;8.40;84.10;;;;;;6195418;23;20648;-85
2021/01/21 04:26:08;;;;;;;1.88;1.15;;;8.30;84.40;;;;;;6196075;23;20178;-85
2021/01/21 04:28:36;;;;;;;1.35;1.25;;;8.40;84.70;;;;;;6196569;23;20209;-84
2021/01/21 04:31:03;;;;;;;0.70;0.70;;;8.40;84.30;;;;;;6196712;23;20568;-85
2021/01/21 04:33:31;;;;;;;1.77;1.40;;;8.50;84.50;;;;;;6195633;23;20179;-83
2021/01/21 04:35:58;;;;;;;1.45;0.93;;;8.50;84.10;;;;;;6196243;23;20183;-83
2021/01/21 04:38:24;;;;;;;0.85;0.85;;;8.60;83.90;;;;;;6196202;23;20199;-82
2021/01/21 04:40:50;;;;;;;1.00;0.70;;;8.70;83.70;;;;;;6196694;23;20650;-83
2021/01/21 04:43:16;;;;;;;1.10;1.10;;;8.70;83.40;;;;;;6196076;23;20223;-83
2021/01/21 04:45:43;;;;;;;1.10;1.00;;;8.80;83.40;;;;;;6196281;23;20182;-84
2021/01/21 04:48:09;;;;;;;1.73;1.20;;;8.90;82.90;;;;;;6195743;23;20202;-83
2021/01/21 04:50:36;;;;;;;0.90;0.90;;;9.00;82.90;;;;;;6195937;23;20233;-84
2021/01/21 04:53:05;;;;;;;1.00;1.00;;;9.00;82.10;;;;;;6196373;23;20225;-83
2021/01/21 04:55:36;;;;;;;0.93;0.77;;;9.10;82.10;;;;;;6197151;23;20538;-83
2021/01/21 04:58:09;;;;;;;0.88;0.77;;;9.20;81.10;;;;;;6196510;23;20218;-84
2021/01/21 05:00:37;;;;;;;1.48;1.13;;;9.30;81.00;;;;;;6195926;23;20167;-84
2021/01/21 05:03:04;;;;;;;1.35;0.82;;;9.30;80.20;;;;;;6195787;23;20179;-83
2021/01/21 05:05:30;;;;;;;0.82;0.82;;;9.40;81.10;;;;;;6196714;23;20179;-84
2021/01/21 05:07:56;;;;;;;1.10;0.90;;;9.50;80.80;;;;;;6196450;23;20205;-84
2021/01/21 05:10:24;;;;;;;0.93;0.93;;;9.50;79.80;;;;;;6196756;23;20218;-82
2021/01/21 05:12:51;;;;;;;1.00;1.00;;;9.50;80.20;;;;;;6196858;23;20206;-83
2021/01/21 05:15:17;;;;;;;0.82;0.82;;;9.50;80.50;;;;;;6196787;23;20252;-82
2021/01/21 05:17:44;;;;;;;0.60;0.60;;;9.50;79.80;;;;;;6196832;23;20208;-83
2021/01/21 05:20:11;;;;;;;0.50;0.45;;;9.60;79.40;;;;;;6197337;23;20488;-83
2021/01/21 05:22:38;;;;;;;1.08;0.98;;;9.60;78.90;;;;;;6196593;23;20179;-82
2021/01/21 05:25:05;;;;;;;1.30;0.93;;;9.60;79.00;;;;;;6197628;23;20182;-83
2021/01/21 05:27:33;;;;;;;0.90;0.75;;;9.70;79.20;;;;;;6196030;23;20211;-83
2021/01/21 05:30:00;;;;;;;1.15;0.70;;;9.60;79.40;;;;;;6196636;23;20179;-83
2021/01/21 05:32:26;;;;;;;0.70;0.70;;;9.60;79.30;;;;;;6196675;23;20194;-83
2021/01/21 05:34:54;;;;;;;1.60;0.63;;;9.60;79.10;;;;;;6196829;23;20195;-84
2021/01/21 05:37:21;;;;;;;0.70;0.70;;;9.60;79.20;;;;;;6196350;23;20203;-84
2021/01/21 05:39:47;;;;;;;0.60;0.60;;;9.60;79.50;;;;;;6196232;23;20183;-84
2021/01/21 05:42:14;;;;;;;1.00;0.82;;;9.60;79.20;;;;;;6196381;23;20182;-83
2021/01/21 05:44:45;;;;;;;1.10;1.08;;;9.70;79.10;;;;;;6197101;23;20241;-83
2021/01/21 05:47:11;;;;;;;1.00;0.70;;;9.70;79.20;;;;;;6196001;23;20206;-82
2021/01/21 05:49:38;;;;;;;1.00;0.90;;;9.70;79.20;;;;;;6196868;23;20183;-83
2021/01/21 05:52:05;;;;;;;1.20;1.10;;;9.70;79.00;;;;;;6197173;23;20194;-83
2021/01/21 05:54:31;;;;;;;1.08;0.98;;;9.60;79.10;;;;;;6197717;23;20249;-84
2021/01/21 05:56:59;;;;;;;4.20;1.00;;;9.70;79.30;;;;;;6203212;23;20202;-82
2021/01/21 05:59:28;;;;;;;0.73;0.73;;;9.60;79.40;;;;;;6203663;23;20183;-82
2021/01/21 06:01:56;;;;;;;1.02;0.60;;;9.60;79.80;;;;;;6202067;23;20179;-83
2021/01/21 06:04:27;;;;;;;0.90;0.90;;;9.60;79.70;;;;;;6200411;23;20201;-83
2021/01/21 06:06:54;;;;;;;1.50;1.05;;;9.50;79.60;;;;;;6200632;23;20195;-83
2021/01/21 06:09:27;;;;;;;1.33;1.10;;;9.50;79.60;;;;;;6201053;23;20178;-82
2021/01/21 06:11:57;;;;;;;0.60;0.60;;;9.50;79.90;;;;;;6205252;23;20283;-83
2021/01/21 06:14:24;;;;;;;1.45;1.25;;;9.50;80.10;;;;;;6209332;23;20183;-81
2021/01/21 06:16:50;;;;;;;1.88;1.10;;;9.50;80.50;;;;;;6207752;23;20191;-82
2021/01/21 06:19:18;;;;;;;1.80;1.00;;;9.40;80.00;;;;;;6206967;23;20193;-82
2021/01/21 06:21:48;;;;;;;0.50;0.50;;;9.40;80.20;;;;;;6205644;23;20738;-82
2021/01/21 06:24:16;;;;;;;0.73;0.73;;;9.40;80.10;;;;;;6201938;23;20202;-81
2021/01/21 06:26:45;;;;;;;1.50;0.90;;;9.40;80.10;;;;;;6207478;23;20244;-81
2021/01/21 06:29:15;;;;;;;0.98;0.80;;;9.40;80.30;;;;;;6205495;23;20182;-83
2021/01/21 06:31:42;;;;;;;0.60;0.60;;;9.40;79.80;;;;;;6201583;23;20183;-83
2021/01/21 06:34:11;;;;;;;0.70;0.65;;;9.30;79.30;;;;;;6201368;23;20187;-82
2021/01/21 06:36:43;;;;;;;0.70;0.70;;;9.40;79.50;;;;;;6201640;23;20560;-83
2021/01/21 06:39:13;;;;;;;1.20;0.75;;;9.40;78.90;;;;;;6204396;23;20163;-83
2021/01/21 06:41:42;;;;;;;1.25;0.80;;;9.40;78.90;;;;;;6200098;23;20219;-83
2021/01/21 06:44:12;;;;;;;4.00;1.00;;;9.50;79.10;;;;;;6198347;23;20182;-83
2021/01/21 06:46:39;;;;;;;1.08;0.70;;;9.50;79.00;;;;;;6197549;23;20183;-83
2021/01/21 06:49:06;;;;;;;0.90;0.80;;;9.50;79.20;;;;;;6197669;23;20167;-83
2021/01/21 06:51:32;;;;;;;2.33;1.23;;;9.60;79.50;;;;;;6197923;23;20203;-83
2021/01/21 06:54:00;;;;;;;0.75;0.73;;;9.70;79.90;;;;;;6197646;23;20179;-82
2021/01/21 06:56:32;;;;;;;1.10;0.80;;;9.80;79.60;;;;;;6198370;23;20179;-83
2021/01/21 06:58:58;;;;;;;5.13;0.80;;;9.90;80.20;;;;;;6198149;23;20189;-84
2021/01/21 07:01:45;;;;;;;1.17;1.13;;;9.90;80.80;;;;;;6197341;23;20181;-83
2021/01/21 07:04:27;;;;;;;1.98;1.05;;;9.90;81.90;;;;;;6198360;23;20183;-82
2021/01/21 07:07:15;;;;;;;1.02;0.90;;;10.00;82.30;;;;;;6198214;23;20251;-83
2021/01/21 07:09:42;;;;;;;1.40;1.00;;;9.90;85.20;;;;;;6198835;23;20289;-83
2021/01/21 07:12:15;;;;;;;0.93;0.70;;;9.90;86.30;;;;;;6198723;23;20199;-84
2021/01/21 07:14:42;;;;;;;1.10;1.00;;;9.90;87.40;;;;;;6199265;23;20179;-84
2021/01/21 07:17:10;;;;;;;0.82;0.82;;;9.90;88.20;;;;;;6200304;23;20203;-82
2021/01/21 07:19:38;;;;;;;0.80;0.70;;;9.90;89.90;;;;;;6202203;23;20207;-84
2021/01/21 07:22:18;;;;;;;1.13;1.02;;;9.90;90.40;;;;;;6201851;23;20182;-84
2021/01/21 07:24:56;;;;;;;2.03;1.05;;;9.90;90.60;;;;;;6202286;23;20548;-84
2021/01/21 07:27:25;;;;;;;0.70;0.70;;;9.90;90.90;;;;;;6201352;23;20226;-84
2021/01/21 07:30:16;;;;;;;0.80;0.70;;;9.80;91.20;;;;;;6201969;23;20243;-84
2021/01/21 07:32:43;;;;;;;1.05;0.90;;;9.70;91.50;;;;;;6197995;23;20183;-82
2021/01/21 07:35:39;;;;;;;1.40;0.93;;;9.70;91.70;;;;;;6198743;23;20657;-82
2021/01/21 07:38:06;;;;;;;0.80;0.80;;;9.80;92.00;;;;;;6197958;23;20271;-82
2021/01/21 07:40:44;;;;;;;0.60;0.60;;;9.80;92.10;;;;;;6197161;23;20613;-81
2021/01/21 07:43:11;;;;;;;1.20;1.10;;;9.70;92.10;;;;;;6194758;23;20200;-82
2021/01/21 07:45:37;;;;;;;1.42;0.75;;;9.70;92.30;;;;;;6194813;23;20187;-83
2021/01/21 07:48:21;;;;;;;1.58;1.48;;;9.80;92.30;;;;;;6193877;23;20211;-82
2021/01/21 07:50:48;;;;;;;0.95;0.70;;;9.80;92.70;;;;;;6195970;23;20185;-82
2021/01/21 07:53:20;;;;;;;0.85;0.55;;;9.80;92.70;;;;;;6193625;23;20198;-81
2021/01/21 07:55:49;;;;;;;1.60;1.05;;;9.80;92.60;;;;;;6192935;23;20190;-82
2021/01/21 07:58:36;;;;;;;1.00;0.80;;;9.80;92.80;;;;;;6193102;23;20203;-83
2021/01/21 08:01:06;;;;;;;1.17;0.85;;;9.80;92.80;;;;;;6193332;23;20222;-81
2021/01/21 08:03:35;;;;;;;1.33;0.93;;;9.80;92.80;;;;;;6192857;23;20218;-82
2021/01/21 08:06:10;;;;;;;0.82;0.82;;;9.90;93.00;;;;;;6192207;23;20185;-82
2021/01/21 08:08:36;;;;;;;0.60;0.60;;;9.90;92.80;;;;;;6193095;23;20202;-81
2021/01/21 08:11:05;;;;;;;0.52;0.50;;;10.00;92.40;;;;;;6193596;23;20189;-82
2021/01/21 08:13:32;;;;;;;2.50;0.90;;;10.00;92.60;;;;;;6192810;23;20198;-82
2021/01/21 08:15:58;;;;;;;1.20;0.70;;;10.00;92.50;;;;;;6191840;23;20185;-82
2021/01/21 08:18:24;;;;;;;1.23;1.00;;;10.10;92.80;;;;;;6191964;23;20220;-81
2021/01/21 08:20:52;;;;;;;0.90;0.63;;;10.10;92.70;;;;;;6192478;23;20190;-82
2021/01/21 08:23:18;;;;;;;0.93;0.60;;;10.20;93.10;;;;;;6191133;23;20175;-82
2021/01/21 08:25:46;;;;;;;2.30;1.00;;;10.20;93.00;;;;;;6190380;23;20236;-81
2021/01/21 08:28:15;;;;;;;0.90;0.90;;;10.30;92.90;;;;;;6190293;23;20225;-82
2021/01/21 08:30:42;;;;;;;0.75;0.70;;;10.40;92.90;;;;;;6191098;23;20209;-81
2021/01/21 08:33:12;;;;;;;0.60;0.57;;;10.30;92.90;;;;;;6194616;23;20202;-82
2021/01/21 08:35:45;;;;;;;1.42;0.60;;;10.40;93.00;;;;;;6194376;23;20232;-84
2021/01/21 08:38:13;;;;;;;0.82;0.82;;;10.40;92.90;;;;;;6191551;23;20533;-81
2021/01/21 08:40:40;;;;;;;0.70;0.55;;;10.40;93.10;;;;;;6190633;23;20521;-81
2021/01/21 08:43:08;;;;;;;1.10;0.60;;;10.50;93.10;;;;;;6194105;23;20178;-82
2021/01/21 08:45:35;;;;;;;0.83;0.50;;;10.50;93.10;;;;;;6192638;23;20207;-82
2021/01/21 08:48:01;;;;;;;1.25;0.77;;;10.50;93.30;;;;;;6191513;23;20444;-81
2021/01/21 08:50:38;;;;;;;1.45;1.00;;;10.60;93.20;;;;;;6187922;23;20179;-80
2021/01/21 08:53:08;;;;;;;1.15;0.60;;;10.60;93.00;;;;;;6186616;23;20191;-80
2021/01/21 08:55:38;;;;;;;1.08;0.70;;;10.60;92.90;;;;;;6187008;23;20210;-80
2021/01/21 08:58:05;;;;;;;1.23;1.13;;;10.60;93.00;;;;;;6187073;23;20520;-81
2021/01/21 09:00:33;;;;;;;1.20;0.98;;;10.60;93.10;;;;;;6187312;23;20179;-81
2021/01/21 09:03:00;;;;;;;0.90;0.70;;;10.60;93.10;;;;;;6187530;23;20175;-80
2021/01/21 09:05:27;;;;;;;1.00;0.90;;;10.60;92.90;;;;;;6187005;23;20184;-81
2021/01/21 09:08:04;;;;;;;1.05;0.70;;;10.60;92.90;;;;;;6187278;23;20209;-80
2021/01/21 09:10:41;;;;;;;0.80;0.80;;;10.60;93.00;;;;;;6187579;23;20602;-83
2021/01/21 09:13:08;;;;;;;0.60;0.60;;;10.60;93.00;;;;;;6187549;23;20186;-82
2021/01/21 09:15:58;;;;;;;1.08;0.98;;;10.60;93.20;;;;;;6188193;23;20180;-84
2021/01/21 09:18:43;;;;;;;1.35;0.65;;;10.60;93.00;;;;;;6189053;23;20202;-85
2021/01/21 09:21:13;;;;;;;0.40;0.40;;;10.70;93.00;;;;;;6189503;23;20195;-83
2021/01/21 09:23:40;;;;;;;0.57;0.57;;;10.70;93.20;;;;;;6190670;23;20207;-83
2021/01/21 09:26:11;;;;;;;2.20;0.95;;;10.80;93.10;;;;;;6189473;23;20412;-84
2021/01/21 09:28:54;;;;;;;1.08;1.00;;;10.90;93.30;;;;;;6190279;23;20200;-84
2021/01/21 09:31:22;;;;;;;0.70;0.70;;;11.10;93.20;;;;;;6190931;23;20167;-84
2021/01/21 09:33:51;;;;;;;0.50;0.43;;;11.20;93.10;;;;;;6191780;23;20185;-85
2021/01/21 09:36:17;;;;;;;1.02;0.75;;;11.20;92.90;;;;;;6190434;23;20915;-85
2021/01/21 09:38:44;;;;;;;1.02;0.57;;;11.20;93.10;;;;;;6190825;23;20694;-84
2021/01/21 09:41:10;;;;;;;2.17;1.02;;;11.20;93.00;;;;;;6191302;23;20184;-84
2021/01/21 09:43:37;;;;;;;1.02;1.02;;;11.30;93.00;;;;;;6190693;23;20182;-84
2021/01/21 09:46:03;;;;;;;1.00;0.82;;;11.20;93.10;;;;;;6190915;23;20187;-84
2021/01/21 09:48:40;;;;;;;0.93;0.93;;;11.20;93.10;;;;;;6198868;23;20241;-85
2021/01/21 09:51:07;;;;;;;0.68;0.57;;;11.10;93.30;;;;;;6200532;23;20184;-84
2021/01/21 09:53:34;;;;;;;0.73;0.70;;;11.10;93.30;;;;;;6201162;23;20232;-85
2021/01/21 09:56:02;;;;;;;2.38;1.05;;;11.20;93.40;;;;;;6203016;23;20211;-84
2021/01/21 09:58:34;;;;;;;0.82;0.75;;;11.20;93.60;;;;;;6202551;23;20205;-85
2021/01/21 10:01:08;;;;;;;0.70;0.70;;;11.30;93.60;;;;;;6202683;23;20188;-85
2021/01/21 10:03:34;;;;;;;0.70;0.60;;;11.40;93.50;;;;;;6201381;23;20398;-85
2021/01/21 10:06:02;;;;;;;0.60;0.60;;;11.40;93.40;;;;;;6202750;23;20414;-84
2021/01/21 10:08:29;;;;;;;0.68;0.68;;;11.50;93.20;;;;;;6202738;23;20816;-84
2021/01/21 10:10:55;;;;;;;0.47;0.47;;;11.60;93.30;;;;;;6202948;23;20185;-85
2021/01/21 10:13:22;;;;;;;0.60;0.60;;;11.50;93.20;;;;;;6202818;23;20199;-84
2021/01/21 10:15:58;;;;;;;1.90;0.87;;;11.70;93.30;;;;;;6201981;23;20936;-85
2021/01/21 10:18:25;;;;;;;0.80;0.70;;;11.80;93.10;;;;;;6202999;23;20460;-85
2021/01/21 10:20:55;;;;;;;0.70;0.70;;;11.80;93.30;;;;;;6202471;23;20420;-85
2021/01/21 10:23:22;;;;;;;1.00;0.87;;;11.90;92.80;;;;;;6203065;23;20436;-85
2021/01/21 10:25:49;;;;;;;0.85;0.85;;;11.90;93.00;;;;;;6204141;23;20456;-85
2021/01/21 10:28:20;;;;;;;1.17;0.90;;;12.00;93.10;;;;;;6203012;23;20197;-85
2021/01/21 10:30:59;;;;;;;0.83;0.83;;;12.10;92.90;;;;;;6203179;23;20400;-86
2021/01/21 10:33:26;;;;;;;0.40;0.33;;;12.30;93.10;;;;;;6204146;23;20523;-86
2021/01/21 10:35:54;;;;;;;0.50;0.50;;;12.50;92.50;;;;;;6203073;23;20414;-85
2021/01/21 10:38:33;;;;;;;0.60;0.60;;;12.50;92.00;;;;;;6203708;23;20491;-85
2021/01/21 10:41:14;;;;;;;0.70;0.70;;;12.50;91.70;;;;;;6203597;23;20408;-85
2021/01/21 10:43:47;;;;;;;0.97;0.97;;;12.50;91.90;;;;;;6202409;23;20397;-85
2021/01/21 10:46:19;;;;;;;1.43;0.90;;;12.40;92.10;;;;;;6202852;23;20419;-84
2021/01/21 10:48:52;;;;;;;0.70;0.70;;;12.50;92.40;;;;;;6203288;23;20532;-85
2021/01/21 10:51:21;;;;;;;0.70;0.70;;;12.50;92.50;;;;;;6204456;23;20881;-85
2021/01/21 10:53:48;;;;;;;0.80;0.80;;;12.60;93.00;;;;;;6204654;23;20452;-85
2021/01/21 10:56:17;;;;;;;0.80;0.80;;;12.70;94.50;;;;;;6203807;23;20420;-85
2021/01/21 10:58:43;;;;;;;1.80;0.87;;;12.70;94.90;;;;;;6205945;23;20445;-85
2021/01/21 11:01:10;;;;;;;0.60;0.60;;;12.80;94.70;;;;;;6203341;23;20413;-84
2021/01/21 11:03:38;;;;;;;0.67;0.67;;;12.90;93.10;;;;;;6207181;23;20426;-84
2021/01/21 11:06:05;;;;;;;0.93;0.93;;;13.00;93.80;;;;;;6208483;23;20417;-85
2021/01/21 11:08:33;;;;;;;0.80;0.80;;;13.00;94.70;;;;;;6206137;23;20489;-84
2021/01/21 11:11:03;;;;;;;0.80;0.60;;;13.10;94.20;;;;;;6205851;23;20421;-86
2021/01/21 11:13:37;;;;;;;0.90;0.70;;;13.40;93.20;;;;;;6205352;23;20440;-85
2021/01/21 11:16:05;;;;;;;0.70;0.70;;;13.60;93.10;;;;;;6208906;23;20394;-84
2021/01/21 11:18:35;;;;;;;0.90;0.90;;;13.50;94.00;;;;;;6207715;23;20434;-84
2021/01/21 11:21:06;;;;;;;1.73;0.90;;;13.30;93.90;;;;;;6208610;23;20418;-85
2021/01/21 11:23:34;;;;;;;2.83;1.23;;;13.10;93.60;;;;;;6209807;23;20414;-85
2021/01/21 11:26:03;;;;;;;1.40;1.37;;;12.80;93.20;;;;;;6209834;23;20448;-84
2021/01/21 11:28:35;;;;;;;0.90;0.90;;;12.70;93.40;;;;;;6210798;23;20438;-83
2021/01/21 11:31:03;;;;;;;1.10;1.00;;;12.60;93.30;;;;;;6211737;23;20372;-84
2021/01/21 11:39:25;;;;;;;1.80;1.37;;;12.50;93.00;;;;;;6210378;23;20465;-84
2021/01/21 11:42:26;;;;;;;1.27;0.90;;;12.50;93.20;;;;;;6210888;23;20371;-84
2021/01/21 11:47:51;;;;;;;1.83;0.90;;;12.50;92.80;;;;;;6197508;23;20453;-84
2021/01/21 11:50:32;;;;;;;0.80;0.80;;;12.50;93.20;;;;;;6211037;23;20413;-84
2021/01/21 11:53:12;;;;;;;3.53;1.10;;;12.50;92.80;;;;;;6211500;23;20412;-83
2021/01/21 11:55:44;;;;;;;1.33;0.90;;;12.60;93.10;;;;;;6211550;23;20468;-86
2021/01/21 11:58:32;;;;;;;1.53;1.00;;;12.60;92.90;;;;;;6211099;23;20400;-84
2021/01/21 12:01:12;;;;;;;1.00;0.90;;;12.60;92.70;;;;;;6211632;23;20461;-85
2021/01/21 12:03:57;;;;;;;0.70;0.70;;;12.70;92.60;;;;;;6209784;23;20388;-86
2021/01/21 12:06:25;;;;;;;0.93;0.93;;;12.70;92.30;;;;;;6210909;23;20396;-83
2021/01/21 12:08:56;;;;;;;0.60;0.60;;;12.70;92.40;;;;;;6211764;23;20426;-82
2021/01/21 12:11:23;;;;;;;0.90;0.90;;;12.80;92.60;;;;;;6211354;23;20426;-82
2021/01/21 12:13:53;;;;;;;0.77;0.77;;;12.80;92.50;;;;;;6211529;23;20453;-83
2021/01/21 12:16:53;;;;;;;;;;;;;;;;;;;;;
2021/01/21 12:19:32;;;;;;;0.90;0.90;;;12.90;92.00;;;;;;6208516;23;20417;-82
2021/01/21 12:22:27;;;;;;;1.03;1.03;;;13.00;92.00;;;;;;6210613;23;20480;-85
2021/01/21 12:25:00;;;;;;;1.03;0.70;;;13.00;92.00;;;;;;6209317;23;20402;-86
2021/01/21 12:27:43;;;;;;;1.00;0.90;;;13.00;91.90;;;;;;6210637;23;20941;-85
2021/01/21 12:30:15;;;;;;;1.40;1.03;;;13.00;92.10;;;;;;6211122;23;20429;-82
2021/01/21 12:32:43;;;;;;;1.27;0.80;;;12.90;92.00;;;;;;6209894;23;20434;-83
2021/01/21 12:35:12;;;;;;;1.13;0.93;;;12.90;91.90;;;;;;6210340;23;20382;-82
2021/01/21 12:37:40;;;;;;;1.57;1.00;;;13.00;92.10;;;;;;6205558;23;20433;-86
2021/01/21 12:40:15;;;;;;;0.93;0.87;;;13.00;91.90;;;;;;6210141;23;20411;-85
2021/01/21 12:42:42;;;;;;;0.70;0.70;;;13.00;91.80;;;;;;6210114;23;20413;-85
2021/01/21 12:45:09;;;;;;;2.20;1.10;;;13.00;92.00;;;;;;6210587;23;20414;-82
2021/01/21 12:47:38;;;;;;;1.53;1.30;;;13.20;92.00;;;;;;6210307;23;20461;-82
2021/01/21 12:50:11;;;;;;;0.93;0.93;;;13.20;91.90;;;;;;6211673;23;20386;-82
2021/01/21 12:52:51;;;;;;;1.07;1.03;;;13.30;91.80;;;;;;6211316;23;20805;-82
2021/01/21 12:55:29;;;;;;;0.80;0.77;;;13.30;92.20;;;;;;6211060;23;20383;-83
2021/01/21 12:58:44;;;;;;;1.37;1.27;;;13.40;92.40;;;;;;6211875;23;20461;-82
2021/01/21 13:01:12;;;;;;;1.13;0.90;;;13.40;92.40;;;;;;6092030;23;20418;-83
2021/01/21 13:04:02;;;;;;;0.73;0.70;;;13.50;92.40;;;;;;6184077;23;20409;-83
2021/01/21 13:06:29;;;;;;;0.80;0.80;;;13.50;91.80;;;;;;6211337;23;20413;-83
2021/01/21 13:08:56;;;;;;;1.10;1.00;;;13.40;92.00;;;;;;6210710;23;20493;-82
2021/01/21 13:11:22;;;;;;;0.67;0.67;;;13.40;92.00;;;;;;6210402;23;20932;-83
2021/01/21 13:13:48;;;;;;;0.90;0.67;;;13.30;92.10;;;;;;6211193;23;20453;-83
2021/01/21 13:16:15;;;;;;;1.40;0.80;;;13.30;92.60;;;;;;6211242;23;20434;-82
2021/01/21 13:18:41;;;;;;;1.30;1.03;;;13.20;92.50;;;;;;6211195;23;20478;-83